Time;durP1;ratioP1;P1;durP2;ratioP2;P2;SDS_P1;SDS_P2;PMS_P1;PMS_P2;Temp;Humidity;BMP_temperature;BMP_pressure;BME280_temperature;BME280_humidity;BME280_pressure;Samples;Min_cycle;Max_cycle;Signal;HPM_P1;HPM_P2
2022/11/21 00:00:45;;;;;;;12.18;2.45;;;6.60;99.90;;;;;;5132293;28;20039;-63
2022/11/21 00:03:11;;;;;;;10.48;2.28;;;6.70;99.90;;;;;;5115851;28;20035;-62
2022/11/21 00:05:38;;;;;;;11.27;2.55;;;6.70;99.90;;;;;;5133934;27;20049;-66
2022/11/21 00:08:05;;;;;;;13.18;2.50;;;6.60;99.90;;;;;;5137195;27;20061;-64
2022/11/21 00:10:32;;;;;;;13.25;2.55;;;6.60;99.90;;;;;;5136684;27;20039;-63
2022/11/21 00:12:59;;;;;;;11.13;2.35;;;6.60;99.90;;;;;;5137414;27;20482;-63
2022/11/21 00:15:26;;;;;;;13.38;2.63;;;6.60;99.90;;;;;;5134753;27;20043;-65
2022/11/21 00:17:52;;;;;;;17.58;3.25;;;6.60;99.90;;;;;;5137487;27;20047;-62
2022/11/21 00:20:19;;;;;;;14.65;2.45;;;6.70;99.90;;;;;;5119671;27;20039;-63
2022/11/21 00:22:46;;;;;;;12.75;1.98;;;6.60;99.90;;;;;;5136895;27;20449;-64
2022/11/21 00:25:12;;;;;;;12.85;2.45;;;6.70;99.90;;;;;;5137645;27;20501;-63
2022/11/21 00:27:39;;;;;;;12.18;3.05;;;6.70;99.90;;;;;;5136811;27;20114;-65
2022/11/21 00:30:06;;;;;;;12.82;3.35;;;6.70;99.90;;;;;;5137715;27;20039;-64
2022/11/21 00:32:32;;;;;;;11.07;2.58;;;6.60;99.90;;;;;;5136782;27;20461;-63
2022/11/21 00:34:59;;;;;;;13.07;2.40;;;6.60;99.90;;;;;;5137118;27;20040;-63
2022/11/21 00:37:26;;;;;;;11.43;2.40;;;6.60;99.90;;;;;;5117857;27;20484;-65
2022/11/21 00:39:53;;;;;;;8.70;1.95;;;6.60;99.90;;;;;;5137192;27;20043;-61
2022/11/21 00:42:19;;;;;;;10.35;2.33;;;6.60;99.90;;;;;;5135966;27;20045;-65
2022/11/21 00:44:46;;;;;;;9.30;2.25;;;6.60;99.90;;;;;;5136693;27;20092;-64
2022/11/21 00:47:13;;;;;;;8.73;2.35;;;6.60;99.90;;;;;;5137436;27;20383;-66
2022/11/21 00:49:39;;;;;;;13.50;2.65;;;6.60;99.90;;;;;;5136185;27;20046;-62
2022/11/21 00:52:06;;;;;;;13.30;2.45;;;6.60;99.90;;;;;;5135915;27;20114;-65
2022/11/21 00:54:33;;;;;;;13.05;2.50;;;6.60;99.90;;;;;;5137332;27;20490;-63
2022/11/21 00:56:59;;;;;;;15.55;2.65;;;6.60;99.90;;;;;;5136653;27;20043;-63
2022/11/21 00:59:26;;;;;;;12.98;2.50;;;6.70;99.90;;;;;;5135845;27;20043;-64
2022/11/21 01:01:53;;;;;;;16.30;2.92;;;6.60;99.90;;;;;;5134712;27;20037;-64
2022/11/21 01:04:20;;;;;;;8.63;2.40;;;6.60;99.90;;;;;;5117307;27;20367;-64
2022/11/21 01:06:46;;;;;;;11.02;2.88;;;6.70;99.90;;;;;;5136282;27;20047;-62
2022/11/21 01:09:13;;;;;;;13.35;2.60;;;6.60;99.90;;;;;;5136382;27;20072;-62
2022/11/21 01:11:40;;;;;;;9.93;2.65;;;6.70;99.90;;;;;;5136692;27;20077;-62
2022/11/21 01:14:07;;;;;;;11.65;2.53;;;6.70;99.90;;;;;;5135765;27;20035;-66
2022/11/21 01:16:33;;;;;;;13.60;2.50;;;6.70;99.90;;;;;;5136374;27;20075;-62
2022/11/21 01:19:00;;;;;;;14.02;2.65;;;6.70;99.90;;;;;;5135060;27;20043;-63
2022/11/21 01:21:27;;;;;;;11.40;2.55;;;6.70;99.90;;;;;;5135442;27;20118;-61
2022/11/21 01:23:53;;;;;;;14.05;2.28;;;6.70;99.90;;;;;;5134940;27;20044;-63
2022/11/21 01:26:20;;;;;;;12.60;2.78;;;6.70;99.90;;;;;;5136646;27;20188;-64
2022/11/21 01:28:47;;;;;;;16.33;2.90;;;6.70;99.90;;;;;;5136305;27;20463;-65
2022/11/21 01:31:14;;;;;;;15.38;3.10;;;6.70;99.90;;;;;;5136395;27;20067;-63
2022/11/21 01:33:40;;;;;;;14.70;3.05;;;6.70;99.90;;;;;;5135409;27;20039;-63
2022/11/21 01:36:07;;;;;;;9.23;2.10;;;6.70;99.90;;;;;;5135833;27;20035;-64
2022/11/21 01:38:34;;;;;;;12.18;2.30;;;6.70;99.90;;;;;;5136075;27;20047;-64
2022/11/21 01:41:00;;;;;;;15.73;3.17;;;6.70;99.90;;;;;;5135403;27;20139;-65
2022/11/21 01:43:27;;;;;;;8.95;2.15;;;6.70;99.90;;;;;;5135962;27;20439;-64
2022/11/21 01:45:54;;;;;;;10.80;2.45;;;6.70;99.90;;;;;;5117205;27;20031;-63
2022/11/21 01:48:21;;;;;;;10.27;2.60;;;6.70;99.90;;;;;;5135305;27;20104;-65
2022/11/21 01:50:48;;;;;;;14.75;2.63;;;6.70;99.90;;;;;;5135159;27;20043;-64
2022/11/21 01:53:14;;;;;;;12.50;2.80;;;6.70;99.90;;;;;;5134415;27;20035;-65
2022/11/21 01:55:41;;;;;;;12.85;2.58;;;6.70;99.90;;;;;;5134287;27;20092;-63
2022/11/21 01:58:08;;;;;;;12.73;2.65;;;6.70;99.90;;;;;;5135890;27;20077;-63
2022/11/21 02:00:35;;;;;;;12.52;2.20;;;6.70;99.90;;;;;;5134799;27;20094;-65
2022/11/21 02:03:02;;;;;;;10.02;2.47;;;6.70;99.90;;;;;;5135451;27;20035;-64
2022/11/21 02:05:29;;;;;;;13.65;2.70;;;6.70;99.90;;;;;;5133906;27;20118;-65
2022/11/21 02:07:55;;;;;;;12.77;2.67;;;6.70;99.90;;;;;;5135036;27;20047;-63
2022/11/21 02:10:22;;;;;;;11.27;2.45;;;6.70;99.90;;;;;;5135738;27;20035;-64
2022/11/21 02:12:49;;;;;;;10.07;2.25;;;6.70;99.90;;;;;;5135779;27;20466;-64
2022/11/21 02:15:16;;;;;;;14.80;2.58;;;6.70;99.90;;;;;;5115511;27;20035;-65
2022/11/21 02:17:42;;;;;;;9.52;2.45;;;6.60;99.90;;;;;;5135305;27;20363;-65
2022/11/21 02:20:09;;;;;;;12.30;2.58;;;6.60;99.90;;;;;;5134201;27;20118;-65
2022/11/21 02:22:36;;;;;;;8.80;2.20;;;6.60;99.90;;;;;;5134494;27;20031;-64
2022/11/21 02:25:02;;;;;;;14.32;3.08;;;6.50;99.90;;;;;;5116758;27;20118;-65
2022/11/21 02:27:29;;;;;;;9.43;2.63;;;6.50;99.90;;;;;;5134836;27;20035;-65
2022/11/21 02:29:56;;;;;;;14.98;2.60;;;6.50;99.90;;;;;;5134109;27;20109;-65
2022/11/21 02:32:23;;;;;;;12.60;3.03;;;6.40;99.90;;;;;;5134477;27;20072;-64
2022/11/21 02:34:49;;;;;;;18.13;4.38;;;6.40;99.90;;;;;;5134209;27;20053;-64
2022/11/21 02:37:16;;;;;;;10.15;2.72;;;6.40;99.90;;;;;;5135325;27;20047;-63
2022/11/21 02:39:43;;;;;;;13.85;2.80;;;6.30;99.90;;;;;;5133564;27;20027;-64
2022/11/21 02:42:09;;;;;;;11.25;2.83;;;6.40;99.90;;;;;;5135327;27;20035;-65
2022/11/21 02:44:36;;;;;;;8.23;2.47;;;6.30;99.90;;;;;;5134925;27;20066;-64
2022/11/21 02:47:03;;;;;;;11.57;2.90;;;6.30;99.90;;;;;;5134936;27;20039;-63
2022/11/21 02:49:30;;;;;;;12.02;2.70;;;6.30;99.90;;;;;;5115897;27;20167;-65
2022/11/21 02:51:56;;;;;;;12.10;2.40;;;6.30;99.90;;;;;;5116567;27;20047;-65
2022/11/21 02:54:23;;;;;;;11.68;2.05;;;6.30;99.90;;;;;;5134757;27;20047;-64
2022/11/21 02:56:50;;;;;;;12.63;2.42;;;6.30;99.90;;;;;;5135229;27;20355;-64
2022/11/21 02:59:17;;;;;;;12.00;2.60;;;6.30;99.90;;;;;;5133129;27;20115;-64
2022/11/21 03:01:43;;;;;;;10.63;2.53;;;6.30;99.90;;;;;;5134031;28;20161;-65
2022/11/21 03:04:10;;;;;;;11.63;2.83;;;6.30;99.90;;;;;;5134671;28;20038;-65
2022/11/21 03:06:37;;;;;;;13.23;2.83;;;6.30;99.90;;;;;;5134238;28;20047;-65
2022/11/21 03:09:04;;;;;;;12.45;2.45;;;6.30;99.90;;;;;;5116213;28;20536;-64
2022/11/21 03:11:30;;;;;;;8.57;3.10;;;6.30;99.90;;;;;;5134035;28;20096;-65
2022/11/21 03:13:57;;;;;;;13.65;3.10;;;6.20;99.90;;;;;;5134408;28;20043;-66
2022/11/21 03:16:24;;;;;;;14.98;2.65;;;6.20;99.90;;;;;;5134290;28;20058;-64
2022/11/21 03:18:50;;;;;;;10.77;2.90;;;6.20;99.90;;;;;;5134361;28;20035;-63
2022/11/21 03:21:17;;;;;;;10.15;2.47;;;6.20;99.90;;;;;;5115044;28;20386;-64
2022/11/21 03:23:44;;;;;;;16.65;2.75;;;6.10;99.90;;;;;;5134706;27;20063;-66
2022/11/21 03:26:11;;;;;;;7.82;2.60;;;6.10;99.90;;;;;;5133168;28;20109;-62
2022/11/21 03:28:37;;;;;;;13.48;2.88;;;6.10;99.90;;;;;;5134617;28;20032;-64
2022/11/21 03:31:04;;;;;;;10.27;2.78;;;6.00;99.90;;;;;;5133292;28;20043;-62
2022/11/21 03:33:31;;;;;;;7.53;2.63;;;6.00;99.90;;;;;;5134193;27;20118;-64
2022/11/21 03:35:57;;;;;;;12.63;2.67;;;6.00;99.90;;;;;;5134177;28;20039;-62
2022/11/21 03:38:24;;;;;;;12.23;3.63;;;5.90;99.90;;;;;;5134348;28;20035;-64
2022/11/21 03:40:51;;;;;;;9.75;3.08;;;5.90;99.90;;;;;;5133837;27;20059;-63
2022/11/21 03:43:17;;;;;;;14.00;2.53;;;5.90;99.90;;;;;;5100182;28;20118;-63
2022/11/21 03:45:44;;;;;;;12.35;2.53;;;5.80;99.90;;;;;;5119782;27;20043;-65
2022/11/21 03:48:11;;;;;;;12.07;2.75;;;5.80;99.90;;;;;;5129226;27;20067;-61
2022/11/21 03:50:38;;;;;;;12.10;2.65;;;5.80;99.90;;;;;;5132026;27;20159;-64
2022/11/21 03:53:04;;;;;;;10.45;2.60;;;5.80;99.90;;;;;;5138178;27;20490;-63
2022/11/21 03:55:31;;;;;;;10.18;3.03;;;5.70;99.90;;;;;;5137972;27;20046;-64
2022/11/21 03:57:58;;;;;;;12.18;2.95;;;5.70;99.90;;;;;;5136943;27;20425;-65
2022/11/21 04:00:24;;;;;;;8.57;2.10;;;5.70;99.90;;;;;;5136885;27;20458;-63
2022/11/21 04:02:51;;;;;;;14.68;2.35;;;5.60;99.90;;;;;;5133583;27;20035;-65
2022/11/21 04:05:18;;;;;;;8.02;2.55;;;5.60;99.90;;;;;;5137401;27;20474;-64
2022/11/21 04:07:44;;;;;;;8.98;2.63;;;5.60;99.90;;;;;;5136847;27;20466;-63
2022/11/21 04:10:11;;;;;;;12.27;2.65;;;5.60;99.90;;;;;;5137389;27;20043;-64
2022/11/21 04:12:38;;;;;;;10.13;2.58;;;5.60;99.90;;;;;;5137212;27;20157;-62
2022/11/21 04:15:05;;;;;;;7.35;2.65;;;5.50;99.90;;;;;;5137571;27;20039;-63
2022/11/21 04:17:39;;;;;;;7.07;2.08;;;5.50;99.90;;;;;;5136975;27;20066;-65
2022/11/21 04:20:05;;;;;;;8.63;2.25;;;5.50;99.90;;;;;;5137302;27;20100;-64
2022/11/21 04:22:32;;;;;;;10.63;2.80;;;5.50;99.90;;;;;;5137539;27;20050;-64
2022/11/21 04:24:59;;;;;;;12.52;2.50;;;5.50;99.90;;;;;;5137610;27;20031;-64
2022/11/21 04:27:26;;;;;;;10.55;2.42;;;5.40;99.90;;;;;;5136634;27;20036;-63
2022/11/21 04:29:52;;;;;;;8.27;2.53;;;5.50;99.90;;;;;;5136543;27;20122;-64
2022/11/21 04:32:19;;;;;;;8.90;2.83;;;5.40;99.90;;;;;;5137275;27;20097;-64
2022/11/21 04:34:46;;;;;;;12.25;2.88;;;5.40;99.90;;;;;;5119061;27;20118;-64
2022/11/21 04:37:12;;;;;;;10.15;2.22;;;5.40;99.90;;;;;;5137173;27;20378;-62
2022/11/21 04:39:39;;;;;;;7.88;2.60;;;5.40;99.90;;;;;;5136489;27;20035;-66
2022/11/21 04:42:06;;;;;;;9.15;2.17;;;5.40;99.90;;;;;;5134773;27;20039;-63
2022/11/21 04:44:33;;;;;;;8.50;2.65;;;5.40;99.90;;;;;;5137165;27;20492;-64
2022/11/21 04:46:59;;;;;;;11.40;2.67;;;5.40;99.90;;;;;;5134943;27;20088;-65
2022/11/21 04:49:31;;;;;;;11.20;2.90;;;5.40;99.90;;;;;;5136759;27;20051;-63
2022/11/21 04:51:57;;;;;;;12.88;2.67;;;5.30;99.90;;;;;;5135569;27;20035;-64
2022/11/21 04:54:24;;;;;;;11.35;2.50;;;5.30;99.90;;;;;;5137278;27;20035;-63
2022/11/21 04:56:51;;;;;;;12.13;3.30;;;5.20;99.90;;;;;;5133744;27;20039;-64
2022/11/21 04:59:18;;;;;;;10.90;2.15;;;5.20;99.90;;;;;;5116125;27;20042;-63
2022/11/21 05:01:45;;;;;;;12.70;3.08;;;5.20;99.90;;;;;;5117302;27;20059;-64
2022/11/21 05:04:11;;;;;;;9.15;2.80;;;5.20;99.90;;;;;;5136636;27;20042;-63
2022/11/21 05:06:41;;;;;;;9.85;2.17;;;5.20;99.90;;;;;;5133533;27;20054;-63
2022/11/21 05:09:10;;;;;;;6.50;2.35;;;5.20;99.90;;;;;;5135062;27;20350;-64
2022/11/21 05:14:25;;;;;;;11.77;2.60;;;5.20;99.90;;;;;;5136366;27;20435;-62
2022/11/21 05:16:52;;;;;;;9.20;2.67;;;5.10;99.90;;;;;;5135490;27;20054;-63
2022/11/21 05:19:19;;;;;;;9.82;2.58;;;5.10;99.90;;;;;;5135734;27;20089;-65
2022/11/21 05:21:46;;;;;;;8.57;2.65;;;5.10;99.90;;;;;;5134144;27;20027;-64
2022/11/21 05:24:12;;;;;;;10.25;3.28;;;5.10;99.90;;;;;;5134167;27;20081;-62
2022/11/21 05:26:39;;;;;;;11.98;3.55;;;5.10;99.90;;;;;;5135087;27;20043;-64
2022/11/21 05:29:06;;;;;;;12.30;2.65;;;5.10;99.90;;;;;;5134052;27;20110;-64
2022/11/21 05:31:33;;;;;;;8.77;2.63;;;5.00;99.90;;;;;;5134716;27;20038;-64
2022/11/21 05:33:59;;;;;;;9.18;2.33;;;5.00;99.90;;;;;;5136219;27;20046;-64
2022/11/21 05:36:26;;;;;;;8.25;2.30;;;5.00;99.90;;;;;;5131758;27;20039;-62
2022/11/21 05:38:53;;;;;;;12.32;2.58;;;5.00;99.90;;;;;;5135879;27;20569;-62
2022/11/21 05:41:19;;;;;;;9.85;2.20;;;5.10;99.90;;;;;;5135522;27;20043;-63
2022/11/21 05:43:46;;;;;;;14.50;3.00;;;5.10;99.90;;;;;;5134568;27;20047;-63
2022/11/21 05:46:13;;;;;;;13.13;2.78;;;5.10;99.90;;;;;;5131312;27;20045;-64
2022/11/21 05:48:40;;;;;;;12.05;2.85;;;5.10;99.90;;;;;;5134985;27;20466;-65
2022/11/21 05:51:06;;;;;;;12.77;2.45;;;5.20;99.90;;;;;;5135616;27;20042;-63
2022/11/21 05:53:33;;;;;;;12.73;2.97;;;5.20;99.90;;;;;;5135329;27;20553;-61
2022/11/21 05:56:00;;;;;;;17.48;3.00;;;5.20;99.90;;;;;;5132271;27;20099;-63
2022/11/21 05:58:27;;;;;;;13.32;3.38;;;5.30;99.90;;;;;;5133369;27;20058;-64
2022/11/21 06:00:53;;;;;;;12.77;3.00;;;5.30;99.90;;;;;;5133174;27;20058;-64
2022/11/21 06:03:31;;;;;;;12.57;3.63;;;5.30;99.90;;;;;;5132983;27;20027;-62
2022/11/21 06:05:59;;;;;;;20.88;4.75;;;5.30;99.90;;;;;;5129666;27;20041;-64
2022/11/21 06:08:26;;;;;;;11.85;3.13;;;5.30;99.90;;;;;;5114688;28;20125;-63
2022/11/21 06:10:57;;;;;;;15.68;3.42;;;5.30;99.90;;;;;;5116561;27;20046;-63
2022/11/21 06:13:24;;;;;;;14.20;3.13;;;5.30;99.90;;;;;;5115567;27;20043;-62
2022/11/21 06:15:51;;;;;;;11.80;2.67;;;5.40;99.90;;;;;;5130777;27;20047;-64
2022/11/21 06:18:24;;;;;;;15.38;3.38;;;5.40;99.90;;;;;;5111306;27;20465;-63
2022/11/21 06:20:50;;;;;;;16.67;4.25;;;5.40;99.90;;;;;;5131936;27;20043;-63
2022/11/21 06:23:17;;;;;;;12.15;3.33;;;5.40;99.90;;;;;;5114578;28;20063;-65
2022/11/21 06:25:46;;;;;;;15.07;3.20;;;5.40;99.90;;;;;;5096855;28;20046;-64
2022/11/21 06:28:13;;;;;;;13.23;3.28;;;5.50;99.90;;;;;;5125869;27;20058;-65
2022/11/21 06:30:40;;;;;;;19.92;3.40;;;5.60;99.90;;;;;;5115409;27;20077;-63
2022/11/21 06:33:06;;;;;;;17.90;3.80;;;5.60;99.90;;;;;;5134797;27;20039;-64
2022/11/21 06:35:33;;;;;;;15.38;3.50;;;5.70;99.90;;;;;;5131057;27;20101;-64
2022/11/21 06:38:00;;;;;;;14.10;4.20;;;5.70;99.90;;;;;;5132385;27;20039;-64
2022/11/21 06:40:30;;;;;;;15.02;3.30;;;5.70;99.90;;;;;;5114605;27;20046;-63
2022/11/21 06:42:56;;;;;;;19.50;3.90;;;5.80;99.90;;;;;;5115809;27;20031;-65
2022/11/21 06:45:23;;;;;;;15.60;4.00;;;5.80;99.90;;;;;;5129165;27;20039;-66
2022/11/21 06:47:50;;;;;;;12.48;3.40;;;5.90;99.90;;;;;;5131930;27;20042;-65
2022/11/21 06:50:17;;;;;;;18.35;4.28;;;5.90;99.90;;;;;;5134702;27;20080;-63
2022/11/21 06:52:43;;;;;;;15.88;3.67;;;6.00;99.90;;;;;;5132252;27;20039;-64
2022/11/21 06:55:10;;;;;;;14.23;3.35;;;6.00;99.90;;;;;;5135192;27;20046;-64
2022/11/21 06:57:37;;;;;;;24.00;3.60;;;6.00;99.90;;;;;;5132391;27;20186;-63
2022/11/21 07:00:03;;;;;;;15.25;3.55;;;6.10;99.90;;;;;;5132463;27;20035;-66
2022/11/21 07:02:30;;;;;;;13.20;3.08;;;6.10;99.90;;;;;;5133585;27;20039;-66
2022/11/21 07:04:57;;;;;;;14.30;3.00;;;6.20;99.90;;;;;;5131399;27;20043;-63
2022/11/21 07:07:23;;;;;;;16.45;3.40;;;6.30;99.90;;;;;;5131680;28;20050;-64
2022/11/21 07:09:50;;;;;;;12.68;2.60;;;6.30;99.90;;;;;;5114709;28;20050;-64
2022/11/21 07:15:02;;;;;;;16.00;3.15;;;6.40;99.90;;;;;;5113770;28;20047;-64
2022/11/21 07:17:29;;;;;;;18.15;3.45;;;6.50;99.90;;;;;;5125816;27;20558;-65
2022/11/21 07:19:56;;;;;;;16.00;3.28;;;6.50;99.90;;;;;;5136024;27;20035;-66
2022/11/21 07:22:22;;;;;;;13.07;2.85;;;6.60;99.90;;;;;;5118325;27;20101;-67
2022/11/21 07:24:49;;;;;;;14.60;3.20;;;6.70;99.90;;;;;;5137523;27;20114;-65
2022/11/21 07:27:16;;;;;;;10.90;2.63;;;6.70;99.90;;;;;;5114678;27;20067;-63
2022/11/21 07:29:43;;;;;;;14.45;3.10;;;6.70;99.90;;;;;;5117821;27;20039;-63
2022/11/21 07:32:09;;;;;;;18.73;4.72;;;6.80;99.90;;;;;;5137319;27;20115;-66
2022/11/21 07:34:36;;;;;;;11.98;2.72;;;6.80;99.90;;;;;;5131813;27;20472;-65
2022/11/21 07:37:03;;;;;;;11.27;3.10;;;6.80;99.90;;;;;;5112959;27;20123;-64
2022/11/21 07:39:31;;;;;;;17.15;2.85;;;6.80;99.90;;;;;;5134666;27;20070;-63
2022/11/21 07:41:57;;;;;;;12.88;2.80;;;6.80;99.90;;;;;;5133122;27;20542;-65
2022/11/21 07:44:24;;;;;;;17.08;2.88;;;6.80;99.90;;;;;;5137884;27;20542;-66
2022/11/21 07:46:51;;;;;;;11.88;2.70;;;6.80;99.90;;;;;;5133854;27;20118;-62
2022/11/21 07:49:17;;;;;;;15.57;2.92;;;6.80;99.90;;;;;;5134430;27;20444;-65
2022/11/21 07:51:44;;;;;;;10.32;2.58;;;6.80;99.90;;;;;;5135747;27;20126;-64
2022/11/21 07:54:11;;;;;;;12.80;2.97;;;6.80;99.90;;;;;;5135705;27;20088;-64
2022/11/21 07:56:38;;;;;;;12.13;2.80;;;6.80;99.90;;;;;;5134510;27;20031;-65
2022/11/21 07:59:04;;;;;;;12.50;2.58;;;6.80;99.90;;;;;;5115990;27;20047;-66
2022/11/21 08:01:31;;;;;;;10.07;2.33;;;6.80;99.90;;;;;;5135734;27;20119;-63
2022/11/21 08:03:58;;;;;;;13.60;2.67;;;6.80;99.90;;;;;;5133523;27;20039;-63
2022/11/21 08:06:25;;;;;;;14.52;4.68;;;6.80;99.90;;;;;;5132427;27;20100;-65
2022/11/21 08:08:52;;;;;;;12.52;2.70;;;6.80;99.90;;;;;;5136531;27;20046;-64
2022/11/21 08:11:18;;;;;;;11.80;2.92;;;6.80;99.90;;;;;;5118467;27;20082;-63
2022/11/21 08:13:45;;;;;;;16.10;3.35;;;6.80;99.90;;;;;;5127386;27;20051;-65
2022/11/21 08:16:12;;;;;;;9.80;2.30;;;6.80;99.90;;;;;;5136412;27;20166;-65
2022/11/21 08:18:39;;;;;;;12.40;2.85;;;6.80;99.90;;;;;;5133344;27;20039;-63
2022/11/21 08:21:05;;;;;;;15.90;2.97;;;6.90;99.90;;;;;;5119788;27;20496;-65
2022/11/21 08:23:32;;;;;;;18.65;2.97;;;6.90;99.90;;;;;;5136295;27;20107;-64
2022/11/21 08:25:59;;;;;;;16.58;2.67;;;6.90;99.90;;;;;;5132700;27;20058;-64
2022/11/21 08:28:26;;;;;;;13.18;2.67;;;6.90;99.90;;;;;;5116800;27;20088;-65
2022/11/21 08:30:52;;;;;;;17.27;3.08;;;7.00;99.90;;;;;;5134010;27;20141;-66
2022/11/21 08:33:19;;;;;;;15.27;2.65;;;7.00;99.90;;;;;;5132452;27;20481;-64
2022/11/21 08:35:46;;;;;;;13.05;2.75;;;7.00;99.90;;;;;;5136939;27;20035;-64
2022/11/21 08:38:13;;;;;;;16.05;3.30;;;7.00;99.90;;;;;;5136763;27;20054;-63
2022/11/21 08:40:39;;;;;;;18.60;3.03;;;7.10;99.90;;;;;;5137261;27;20039;-62
2022/11/21 08:43:06;;;;;;;12.88;2.90;;;7.10;99.90;;;;;;5136933;27;20088;-64
2022/11/21 08:45:33;;;;;;;17.52;2.55;;;7.10;99.90;;;;;;5136935;27;20035;-62
2022/11/21 08:48:00;;;;;;;13.45;3.05;;;7.20;99.90;;;;;;5137019;27;20084;-63
2022/11/21 08:50:30;;;;;;;13.55;2.35;;;7.20;99.90;;;;;;5136655;27;20130;-63
2022/11/21 08:52:57;;;;;;;13.32;2.78;;;7.20;99.90;;;;;;5136924;27;20129;-63
2022/11/21 08:55:24;;;;;;;14.10;2.53;;;7.30;99.90;;;;;;5136495;27;20082;-62
2022/11/21 08:57:51;;;;;;;13.70;3.00;;;7.30;99.90;;;;;;5136064;27;20043;-61
2022/11/21 09:00:17;;;;;;;13.10;2.50;;;7.30;99.90;;;;;;5136869;27;20126;-62
2022/11/21 09:02:44;;;;;;;12.73;2.25;;;7.40;99.90;;;;;;5136973;27;20039;-62
2022/11/21 09:05:11;;;;;;;16.02;3.35;;;7.40;99.90;;;;;;5118419;27;20067;-64
2022/11/21 09:07:40;;;;;;;18.48;3.45;;;7.40;99.90;;;;;;5118159;27;20162;-64
2022/11/21 09:10:06;;;;;;;14.00;2.65;;;7.50;99.90;;;;;;5136587;27;20064;-64
2022/11/21 09:12:33;;;;;;;12.07;2.60;;;7.50;99.90;;;;;;5118417;27;20106;-64
2022/11/21 09:18:03;;;;;;;10.90;2.63;;;7.50;99.90;;;;;;5118114;27;20063;-64
2022/11/21 09:20:31;;;;;;;15.75;3.00;;;7.60;99.90;;;;;;5136590;27;20043;-63
2022/11/21 09:22:57;;;;;;;14.07;2.75;;;7.60;99.90;;;;;;5118198;27;20058;-65
2022/11/21 09:25:24;;;;;;;11.80;2.70;;;7.60;99.90;;;;;;5117950;27;20043;-65
2022/11/21 09:27:51;;;;;;;15.93;2.47;;;7.70;99.90;;;;;;5136422;27;20402;-65
2022/11/21 09:30:18;;;;;;;14.27;2.80;;;7.70;99.90;;;;;;5136447;27;20498;-63
2022/11/21 09:32:44;;;;;;;18.08;3.58;;;7.80;99.90;;;;;;5136319;27;20084;-66
2022/11/21 09:35:11;;;;;;;13.18;2.42;;;7.80;99.90;;;;;;5135767;27;20043;-66
2022/11/21 09:37:39;;;;;;;12.05;2.40;;;7.80;99.90;;;;;;5136193;27;20057;-64
2022/11/21 09:40:05;;;;;;;16.48;2.97;;;7.80;99.90;;;;;;5135111;27;20124;-64
2022/11/21 09:42:32;;;;;;;17.33;2.90;;;7.90;99.90;;;;;;5135873;27;20130;-62
2022/11/21 09:44:59;;;;;;;20.13;3.08;;;7.90;99.90;;;;;;5135577;27;20042;-66
2022/11/21 09:47:26;;;;;;;14.75;2.63;;;7.90;99.90;;;;;;5117357;27;20073;-66
2022/11/21 09:49:52;;;;;;;19.13;2.92;;;7.90;99.90;;;;;;5135521;27;20035;-63
2022/11/21 09:52:19;;;;;;;14.32;3.22;;;7.90;99.90;;;;;;5117878;27;20039;-66
2022/11/21 09:54:46;;;;;;;13.98;3.35;;;7.90;99.90;;;;;;5117540;27;20043;-64
2022/11/21 09:57:13;;;;;;;17.35;2.90;;;7.90;99.90;;;;;;5135460;27;20088;-65
2022/11/21 09:59:40;;;;;;;12.63;2.70;;;7.90;99.90;;;;;;5117883;27;20043;-64
2022/11/21 10:02:07;;;;;;;14.05;3.30;;;7.90;99.90;;;;;;5117882;27;20031;-62
2022/11/21 10:04:33;;;;;;;13.38;2.92;;;8.00;99.90;;;;;;5135852;27;20382;-65
2022/11/21 10:07:01;;;;;;;19.27;3.65;;;8.00;99.90;;;;;;5117152;27;20047;-63
2022/11/21 10:09:28;;;;;;;22.15;3.80;;;8.00;99.90;;;;;;5117131;27;20134;-63
2022/11/21 10:14:40;;;;;;;15.73;3.78;;;8.00;99.90;;;;;;5135418;27;20422;-65
2022/11/21 10:17:07;;;;;;;15.85;2.97;;;8.00;99.90;;;;;;5135580;27;20121;-63
2022/11/21 10:19:34;;;;;;;17.05;3.30;;;8.00;99.90;;;;;;5135181;27;20122;-63
2022/11/21 10:22:00;;;;;;;13.80;2.95;;;8.10;99.90;;;;;;5135323;27;20130;-64
2022/11/21 10:24:27;;;;;;;15.48;3.58;;;8.10;99.90;;;;;;5134931;27;20043;-63
2022/11/21 10:26:54;;;;;;;14.35;3.72;;;8.10;99.90;;;;;;5135153;27;20500;-64
2022/11/21 10:29:21;;;;;;;13.48;3.15;;;8.10;99.90;;;;;;5134891;27;20091;-63
2022/11/21 10:31:48;;;;;;;15.60;3.33;;;8.10;99.90;;;;;;5134913;27;20046;-63
2022/11/21 10:34:15;;;;;;;16.67;3.33;;;8.10;99.90;;;;;;5134928;27;20081;-64
2022/11/21 10:36:42;;;;;;;22.63;3.78;;;8.10;99.90;;;;;;5134816;27;20139;-65
2022/11/21 10:39:09;;;;;;;22.15;3.50;;;8.20;99.90;;;;;;5135205;27;20449;-66
2022/11/21 10:41:35;;;;;;;18.95;3.50;;;8.20;99.90;;;;;;5134858;27;20059;-64
2022/11/21 10:46:51;;;;;;;22.02;4.40;;;8.30;99.90;;;;;;5135033;27;20039;-63
2022/11/21 10:49:17;;;;;;;26.83;5.32;;;8.30;99.90;;;;;;5134636;27;20486;-66
2022/11/21 10:51:44;;;;;;;19.52;3.58;;;8.30;99.90;;;;;;5134140;27;20035;-63
2022/11/21 10:56:58;;;;;;;23.58;5.32;;;8.30;99.90;;;;;;5134970;27;20043;-63
2022/11/21 10:59:25;;;;;;;16.77;4.10;;;8.40;99.90;;;;;;5134320;27;20043;-63
2022/11/21 11:01:56;;;;;;;19.60;4.05;;;8.40;99.90;;;;;;5135001;27;20035;-64
2022/11/21 11:04:23;;;;;;;18.27;4.35;;;8.40;99.90;;;;;;5134810;27;20118;-64
2022/11/21 11:06:55;;;;;;;22.50;3.70;;;8.50;99.90;;;;;;5134504;28;20051;-66
2022/11/21 11:09:22;;;;;;;16.23;3.60;;;8.50;99.90;;;;;;5134370;28;20043;-63
2022/11/21 11:11:49;;;;;;;16.15;3.30;;;8.50;99.90;;;;;;5116358;28;20111;-65
2022/11/21 11:14:17;;;;;;;20.23;3.10;;;8.50;99.90;;;;;;5134739;28;20450;-66
2022/11/21 11:16:43;;;;;;;18.20;3.50;;;8.50;99.90;;;;;;5134636;28;20088;-65
2022/11/21 11:19:10;;;;;;;13.38;3.60;;;8.50;99.90;;;;;;5134833;28;20458;-65
2022/11/21 11:21:37;;;;;;;16.35;3.42;;;8.60;99.90;;;;;;5134467;28;20394;-66
2022/11/21 11:24:03;;;;;;;15.35;3.78;;;8.60;99.90;;;;;;5134338;28;20123;-64
2022/11/21 11:26:30;;;;;;;20.70;3.95;;;8.70;99.90;;;;;;5134456;28;20115;-64
2022/11/21 11:28:57;;;;;;;18.15;3.33;;;8.70;99.90;;;;;;5134055;28;20043;-66
2022/11/21 11:31:23;;;;;;;17.33;3.67;;;8.70;99.90;;;;;;5134340;28;20039;-65
2022/11/21 11:33:50;;;;;;;17.95;4.05;;;8.60;99.90;;;;;;5134774;28;20077;-66
2022/11/21 11:36:17;;;;;;;19.35;3.88;;;8.70;99.90;;;;;;5134102;28;20099;-64
2022/11/21 11:38:44;;;;;;;18.27;3.72;;;8.70;99.90;;;;;;5134313;28;20069;-66
2022/11/21 11:41:10;;;;;;;15.25;3.88;;;8.70;99.90;;;;;;5115793;28;20043;-63
2022/11/21 11:49:00;;;;;;;31.20;5.43;;;8.70;99.90;;;;;;5116001;28;20047;-67
2022/11/21 11:51:46;;;;;;;22.52;4.50;;;8.80;99.90;;;;;;5134027;28;20039;-65
2022/11/21 11:54:13;;;;;;;22.13;4.00;;;8.80;99.90;;;;;;5115558;28;20039;-66
2022/11/21 11:56:39;;;;;;;21.30;4.18;;;8.80;99.90;;;;;;5134067;28;20043;-65
2022/11/21 11:59:06;;;;;;;16.45;3.78;;;8.90;99.90;;;;;;5133850;28;20092;-65
2022/11/21 12:01:33;;;;;;;19.45;4.20;;;8.90;99.90;;;;;;5115993;28;20036;-63
2022/11/21 12:04:00;;;;;;;19.80;3.90;;;9.00;99.90;;;;;;5138017;27;20062;-65
2022/11/21 12:06:28;;;;;;;22.13;4.78;;;9.00;99.90;;;;;;5137609;27;20058;-62
2022/11/21 12:09:15;;;;;;;23.42;4.47;;;9.00;99.90;;;;;;5138052;27;20051;-65
2022/11/21 12:17:12;;;;;;;17.17;3.90;;;9.10;99.90;;;;;;5137889;27;20478;-64
2022/11/21 12:19:39;;;;;;;20.42;4.05;;;9.20;99.90;;;;;;5137949;27;20078;-66
2022/11/21 12:22:06;;;;;;;18.08;4.13;;;9.20;99.90;;;;;;5118897;27;20067;-63
2022/11/21 12:24:33;;;;;;;22.40;4.28;;;9.30;99.90;;;;;;5137137;27;20111;-64
2022/11/21 12:27:06;;;;;;;22.40;4.22;;;9.30;99.90;;;;;;5137639;27;20056;-64
2022/11/21 12:29:33;;;;;;;17.30;4.50;;;9.40;99.90;;;;;;5137071;27;20509;-65
2022/11/21 12:32:00;;;;;;;21.52;4.75;;;9.40;99.90;;;;;;5137560;27;20047;-62
2022/11/21 12:34:27;;;;;;;20.13;4.70;;;9.40;99.90;;;;;;5118994;27;20078;-63
2022/11/21 12:36:53;;;;;;;15.68;4.28;;;9.40;99.90;;;;;;5137149;27;20035;-62
2022/11/21 12:39:20;;;;;;;18.48;4.75;;;9.40;99.90;;;;;;5137327;27;20365;-66
2022/11/21 12:44:32;;;;;;;19.50;5.20;;;9.40;99.90;;;;;;5117494;27;20047;-63
2022/11/21 12:46:59;;;;;;;15.23;3.75;;;9.40;99.90;;;;;;5135655;27;20039;-65
2022/11/21 12:55:05;;;;;;;15.30;3.20;;;9.40;99.90;;;;;;5126201;27;20062;-63
2022/11/21 12:57:32;;;;;;;16.95;3.67;;;9.40;99.90;;;;;;5118101;27;20562;-63
2022/11/21 12:59:59;;;;;;;15.55;2.78;;;9.40;99.90;;;;;;5135197;27;20067;-65
2022/11/21 13:02:25;;;;;;;14.15;2.90;;;9.30;99.90;;;;;;5136473;27;20159;-64
2022/11/21 13:04:52;;;;;;;14.77;3.35;;;9.30;99.90;;;;;;5136116;27;20043;-63
2022/11/21 13:07:19;;;;;;;16.67;3.92;;;9.30;99.90;;;;;;5136157;27;20130;-65
2022/11/21 13:09:46;;;;;;;13.35;2.83;;;9.30;99.90;;;;;;5117834;27;20039;-65
2022/11/21 13:12:12;;;;;;;13.80;3.53;;;9.30;99.90;;;;;;5135892;27;20521;-65
2022/11/21 13:14:39;;;;;;;15.70;2.88;;;9.20;99.90;;;;;;5135774;27;20047;-63
2022/11/21 13:17:06;;;;;;;12.73;2.65;;;9.20;99.90;;;;;;5135688;27;20039;-64
2022/11/21 13:19:33;;;;;;;8.80;2.42;;;9.20;99.90;;;;;;5136091;27;20050;-65
2022/11/21 13:21:59;;;;;;;15.15;2.90;;;9.10;99.90;;;;;;5135600;27;20049;-64